sensor_id;sensor_type;location;lat;lon;timestamp;temperature;humidity
13440;DHT22;6792;57.698;11.946;2023-10-08T00:00:15;14.80;42.50
13440;DHT22;6792;57.698;11.946;2023-10-08T00:03:03;14.80;42.40
13440;DHT22;6792;57.698;11.946;2023-10-08T00:05:36;14.80;42.40
13440;DHT22;6792;57.698;11.946;2023-10-08T00:08:07;14.80;42.30
13440;DHT22;6792;57.698;11.946;2023-10-08T00:10:37;14.80;42.20
13440;DHT22;6792;57.698;11.946;2023-10-08T00:13:09;14.70;42.10
13440;DHT22;6792;57.698;11.946;2023-10-08T00:15:38;14.70;42.00
13440;DHT22;6792;57.698;11.946;2023-10-08T00:18:10;14.70;41.90
13440;DHT22;6792;57.698;11.946;2023-10-08T00:20:41;14.70;41.40
13440;DHT22;6792;57.698;11.946;2023-10-08T00:23:12;14.60;41.90
13440;DHT22;6792;57.698;11.946;2023-10-08T00:25:43;14.60;41.90
13440;DHT22;6792;57.698;11.946;2023-10-08T00:28:14;14.60;41.90
13440;DHT22;6792;57.698;11.946;2023-10-08T00:30:45;14.60;41.90
13440;DHT22;6792;57.698;11.946;2023-10-08T00:33:16;14.50;41.90
13440;DHT22;6792;57.698;11.946;2023-10-08T00:35:46;14.50;42.00
13440;DHT22;6792;57.698;11.946;2023-10-08T00:38:16;14.50;42.10
13440;DHT22;6792;57.698;11.946;2023-10-08T00:40:47;14.50;42.00
13440;DHT22;6792;57.698;11.946;2023-10-08T00:46:21;14.50;41.50
13440;DHT22;6792;57.698;11.946;2023-10-08T00:48:53;14.50;42.20
13440;DHT22;6792;57.698;11.946;2023-10-08T00:51:24;14.40;42.20
13440;DHT22;6792;57.698;11.946;2023-10-08T00:53:58;14.40;42.40
13440;DHT22;6792;57.698;11.946;2023-10-08T00:56:30;14.30;42.50
13440;DHT22;6792;57.698;11.946;2023-10-08T00:59:08;14.30;42.50
13440;DHT22;6792;57.698;11.946;2023-10-08T01:01:40;14.30;42.60
13440;DHT22;6792;57.698;11.946;2023-10-08T01:04:11;14.30;42.60
13440;DHT22;6792;57.698;11.946;2023-10-08T01:06:42;14.20;42.50
13440;DHT22;6792;57.698;11.946;2023-10-08T01:09:11;14.20;42.50
13440;DHT22;6792;57.698;11.946;2023-10-08T01:11:50;14.20;42.60
13440;DHT22;6792;57.698;11.946;2023-10-08T01:14:18;14.20;42.10
13440;DHT22;6792;57.698;11.946;2023-10-08T01:16:50;14.20;42.00
13440;DHT22;6792;57.698;11.946;2023-10-08T01:19:20;14.20;42.00
13440;DHT22;6792;57.698;11.946;2023-10-08T01:21:49;14.20;41.70
13440;DHT22;6792;57.698;11.946;2023-10-08T01:24:18;14.20;41.50
13440;DHT22;6792;57.698;11.946;2023-10-08T01:26:49;14.20;41.40
13440;DHT22;6792;57.698;11.946;2023-10-08T01:29:19;14.20;41.30
13440;DHT22;6792;57.698;11.946;2023-10-08T01:31:48;14.20;41.10
13440;DHT22;6792;57.698;11.946;2023-10-08T01:34:20;14.10;41.00
13440;DHT22;6792;57.698;11.946;2023-10-08T01:36:50;14.10;41.10
13440;DHT22;6792;57.698;11.946;2023-10-08T01:39:20;14.10;40.90
13440;DHT22;6792;57.698;11.946;2023-10-08T01:41:49;14.10;40.80
13440;DHT22;6792;57.698;11.946;2023-10-08T01:44:19;14.00;40.80
13440;DHT22;6792;57.698;11.946;2023-10-08T01:46:48;14.00;40.70
13440;DHT22;6792;57.698;11.946;2023-10-08T01:49:17;14.10;40.70
13440;DHT22;6792;57.698;11.946;2023-10-08T01:51:48;14.10;40.70
13440;DHT22;6792;57.698;11.946;2023-10-08T01:54:17;14.00;40.60
13440;DHT22;6792;57.698;11.946;2023-10-08T01:56:49;14.00;40.60
13440;DHT22;6792;57.698;11.946;2023-10-08T01:59:18;14.00;40.60
13440;DHT22;6792;57.698;11.946;2023-10-08T02:01:48;13.90;40.00
13440;DHT22;6792;57.698;11.946;2023-10-08T02:04:19;13.90;40.00
13440;DHT22;6792;57.698;11.946;2023-10-08T02:06:49;13.90;40.60
13440;DHT22;6792;57.698;11.946;2023-10-08T02:09:18;13.90;40.60
13440;DHT22;6792;57.698;11.946;2023-10-08T02:11:49;13.90;40.60
13440;DHT22;6792;57.698;11.946;2023-10-08T02:14:21;13.90;40.60
13440;DHT22;6792;57.698;11.946;2023-10-08T02:16:50;13.80;40.40
13440;DHT22;6792;57.698;11.946;2023-10-08T02:19:21;13.80;39.80
13440;DHT22;6792;57.698;11.946;2023-10-08T02:21:52;13.80;40.30
13440;DHT22;6792;57.698;11.946;2023-10-08T02:24:22;13.80;40.70
13440;DHT22;6792;57.698;11.946;2023-10-08T02:26:52;13.70;40.20
13440;DHT22;6792;57.698;11.946;2023-10-08T02:29:25;13.70;40.20
13440;DHT22;6792;57.698;11.946;2023-10-08T02:31:54;13.70;40.20
13440;DHT22;6792;57.698;11.946;2023-10-08T02:34:23;13.70;40.20
13440;DHT22;6792;57.698;11.946;2023-10-08T02:36:53;13.70;40.10
13440;DHT22;6792;57.698;11.946;2023-10-08T02:39:23;13.70;40.10
13440;DHT22;6792;57.698;11.946;2023-10-08T02:41:54;13.60;40.00
13440;DHT22;6792;57.698;11.946;2023-10-08T02:44:25;13.60;40.00
13440;DHT22;6792;57.698;11.946;2023-10-08T02:46:55;13.60;39.90
13440;DHT22;6792;57.698;11.946;2023-10-08T02:49:24;13.60;40.00
13440;DHT22;6792;57.698;11.946;2023-10-08T02:51:54;13.60;40.00
13440;DHT22;6792;57.698;11.946;2023-10-08T02:54:25;13.60;40.10
13440;DHT22;6792;57.698;11.946;2023-10-08T02:56:59;13.50;40.10
13440;DHT22;6792;57.698;11.946;2023-10-08T02:59:31;13.50;40.20
13440;DHT22;6792;57.698;11.946;2023-10-08T03:02:04;13.50;40.20
13440;DHT22;6792;57.698;11.946;2023-10-08T03:04:35;13.40;40.30
13440;DHT22;6792;57.698;11.946;2023-10-08T03:07:07;13.40;40.90
13440;DHT22;6792;57.698;11.946;2023-10-08T03:09:39;13.40;40.40
13440;DHT22;6792;57.698;11.946;2023-10-08T03:12:10;13.30;40.50
13440;DHT22;6792;57.698;11.946;2023-10-08T03:14:40;13.30;40.40
13440;DHT22;6792;57.698;11.946;2023-10-08T03:17:12;13.30;40.50
13440;DHT22;6792;57.698;11.946;2023-10-08T03:19:43;13.30;40.00
13440;DHT22;6792;57.698;11.946;2023-10-08T03:22:12;13.30;40.60
13440;DHT22;6792;57.698;11.946;2023-10-08T03:24:43;13.30;40.60
13440;DHT22;6792;57.698;11.946;2023-10-08T03:27:14;13.30;40.70
13440;DHT22;6792;57.698;11.946;2023-10-08T03:29:45;13.20;40.30
13440;DHT22;6792;57.698;11.946;2023-10-08T03:32:15;13.20;40.60
13440;DHT22;6792;57.698;11.946;2023-10-08T03:34:48;13.20;40.70
13440;DHT22;6792;57.698;11.946;2023-10-08T03:37:22;13.10;40.70
13440;DHT22;6792;57.698;11.946;2023-10-08T03:39:55;13.10;40.90
13440;DHT22;6792;57.698;11.946;2023-10-08T03:42:30;13.10;41.00
13440;DHT22;6792;57.698;11.946;2023-10-08T03:45:03;13.10;41.10
13440;DHT22;6792;57.698;11.946;2023-10-08T03:47:40;13.10;41.10
13440;DHT22;6792;57.698;11.946;2023-10-08T03:50:11;13.10;41.20
13440;DHT22;6792;57.698;11.946;2023-10-08T03:52:42;13.00;41.20
13440;DHT22;6792;57.698;11.946;2023-10-08T03:55:12;13.00;41.40
13440;DHT22;6792;57.698;11.946;2023-10-08T03:57:44;13.00;41.40
13440;DHT22;6792;57.698;11.946;2023-10-08T04:00:15;13.00;41.60
13440;DHT22;6792;57.698;11.946;2023-10-08T04:02:47;12.90;41.60
13440;DHT22;6792;57.698;11.946;2023-10-08T04:05:18;12.90;41.60
13440;DHT22;6792;57.698;11.946;2023-10-08T04:07:47;12.90;41.70
13440;DHT22;6792;57.698;11.946;2023-10-08T04:10:47;12.80;41.80
13440;DHT22;6792;57.698;11.946;2023-10-08T04:13:37;12.80;42.00
13440;DHT22;6792;57.698;11.946;2023-10-08T04:16:08;12.70;42.10
13440;DHT22;6792;57.698;11.946;2023-10-08T04:18:37;12.60;42.10
13440;DHT22;6792;57.698;11.946;2023-10-08T04:21:08;12.60;41.60
13440;DHT22;6792;57.698;11.946;2023-10-08T04:23:41;12.60;41.60
13440;DHT22;6792;57.698;11.946;2023-10-08T04:26:12;12.60;41.70
13440;DHT22;6792;57.698;11.946;2023-10-08T04:28:41;12.60;42.30
13440;DHT22;6792;57.698;11.946;2023-10-08T04:31:10;12.60;42.40
13440;DHT22;6792;57.698;11.946;2023-10-08T04:33:44;12.70;42.50
13440;DHT22;6792;57.698;11.946;2023-10-08T04:36:15;12.60;42.50
13440;DHT22;6792;57.698;11.946;2023-10-08T04:38:48;12.60;42.00
13440;DHT22;6792;57.698;11.946;2023-10-08T04:41:19;12.60;42.00
13440;DHT22;6792;57.698;11.946;2023-10-08T04:43:50;12.60;42.70
13440;DHT22;6792;57.698;11.946;2023-10-08T04:46:21;12.50;42.70
13440;DHT22;6792;57.698;11.946;2023-10-08T04:49:04;12.50;42.70
13440;DHT22;6792;57.698;11.946;2023-10-08T04:51:35;12.50;42.80
13440;DHT22;6792;57.698;11.946;2023-10-08T04:54:06;12.50;42.80
13440;DHT22;6792;57.698;11.946;2023-10-08T04:56:37;12.50;42.40
13440;DHT22;6792;57.698;11.946;2023-10-08T04:59:06;12.40;43.00
13440;DHT22;6792;57.698;11.946;2023-10-08T05:01:38;12.40;43.10
13440;DHT22;6792;57.698;11.946;2023-10-08T05:04:09;12.40;43.10
13440;DHT22;6792;57.698;11.946;2023-10-08T05:06:53;12.40;43.20
13440;DHT22;6792;57.698;11.946;2023-10-08T05:09:42;12.30;43.20
13440;DHT22;6792;57.698;11.946;2023-10-08T05:12:16;12.30;43.20
13440;DHT22;6792;57.698;11.946;2023-10-08T05:14:58;12.30;43.30
13440;DHT22;6792;57.698;11.946;2023-10-08T05:17:48;12.30;43.40
13440;DHT22;6792;57.698;11.946;2023-10-08T05:20:28;12.30;43.40
13440;DHT22;6792;57.698;11.946;2023-10-08T05:23:12;12.30;43.50
13440;DHT22;6792;57.698;11.946;2023-10-08T05:25:51;12.20;43.60
13440;DHT22;6792;57.698;11.946;2023-10-08T05:28:28;12.20;43.20
13440;DHT22;6792;57.698;11.946;2023-10-08T05:30:58;12.20;43.80
13440;DHT22;6792;57.698;11.946;2023-10-08T05:33:35;12.20;43.80
13440;DHT22;6792;57.698;11.946;2023-10-08T05:36:10;12.20;43.90
13440;DHT22;6792;57.698;11.946;2023-10-08T05:38:41;12.20;43.90
13440;DHT22;6792;57.698;11.946;2023-10-08T05:41:21;12.20;43.90
13440;DHT22;6792;57.698;11.946;2023-10-08T05:43:58;12.20;44.00
13440;DHT22;6792;57.698;11.946;2023-10-08T05:46:45;12.10;44.10
13440;DHT22;6792;57.698;11.946;2023-10-08T05:49:36;12.10;43.70
13440;DHT22;6792;57.698;11.946;2023-10-08T05:52:12;12.10;44.30
13440;DHT22;6792;57.698;11.946;2023-10-08T05:57:34;12.00;43.80
13440;DHT22;6792;57.698;11.946;2023-10-08T06:10:27;11.80;44.40
13440;DHT22;6792;57.698;11.946;2023-10-08T06:20:29;11.90;44.30
13440;DHT22;6792;57.698;11.946;2023-10-08T06:32:13;13.30;45.00
13440;DHT22;6792;57.698;11.946;2023-10-08T06:34:45;12.00;45.00
13440;DHT22;6792;57.698;11.946;2023-10-08T06:37:15;12.10;45.00
13440;DHT22;6792;57.698;11.946;2023-10-08T06:39:48;12.10;45.00
13440;DHT22;6792;57.698;11.946;2023-10-08T06:42:20;12.20;45.00
13440;DHT22;6792;57.698;11.946;2023-10-08T06:51:33;12.20;44.50
13440;DHT22;6792;57.698;11.946;2023-10-08T06:54:13;12.20;45.20
13440;DHT22;6792;57.698;11.946;2023-10-08T06:56:51;12.30;45.10
13440;DHT22;6792;57.698;11.946;2023-10-08T06:59:39;12.30;45.00
13440;DHT22;6792;57.698;11.946;2023-10-08T07:02:12;12.40;44.90
13440;DHT22;6792;57.698;11.946;2023-10-08T07:04:51;12.50;44.80
13440;DHT22;6792;57.698;11.946;2023-10-08T07:07:20;12.60;44.80
13440;DHT22;6792;57.698;11.946;2023-10-08T07:09:50;12.60;44.60
13440;DHT22;6792;57.698;11.946;2023-10-08T07:12:22;12.70;44.10
13440;DHT22;6792;57.698;11.946;2023-10-08T07:14:55;12.70;44.60
13440;DHT22;6792;57.698;11.946;2023-10-08T07:17:27;12.80;44.50
13440;DHT22;6792;57.698;11.946;2023-10-08T07:19:59;12.80;44.40
13440;DHT22;6792;57.698;11.946;2023-10-08T07:22:41;12.90;44.30
13440;DHT22;6792;57.698;11.946;2023-10-08T07:25:13;12.90;44.20
13440;DHT22;6792;57.698;11.946;2023-10-08T07:27:55;13.00;44.10
13440;DHT22;6792;57.698;11.946;2023-10-08T07:30:37;13.00;43.90
13440;DHT22;6792;57.698;11.946;2023-10-08T07:39:44;13.20;42.80
13440;DHT22;6792;57.698;11.946;2023-10-08T07:42:28;13.20;43.50
13440;DHT22;6792;57.698;11.946;2023-10-08T07:44:58;13.30;43.30
13440;DHT22;6792;57.698;11.946;2023-10-08T07:47:34;13.30;43.20
13440;DHT22;6792;57.698;11.946;2023-10-08T07:50:09;13.40;42.80
13440;DHT22;6792;57.698;11.946;2023-10-08T07:52:41;13.40;43.00
13440;DHT22;6792;57.698;11.946;2023-10-08T07:55:13;13.50;42.90
13440;DHT22;6792;57.698;11.946;2023-10-08T07:57:46;13.60;42.90
13440;DHT22;6792;57.698;11.946;2023-10-08T08:00:20;13.60;42.70
13440;DHT22;6792;57.698;11.946;2023-10-08T08:03:07;13.60;42.70
13440;DHT22;6792;57.698;11.946;2023-10-08T08:05:48;13.70;42.60
13440;DHT22;6792;57.698;11.946;2023-10-08T08:11:43;13.80;41.70
13440;DHT22;6792;57.698;11.946;2023-10-08T08:14:39;13.80;42.50
13440;DHT22;6792;57.698;11.946;2023-10-08T08:21:08;15.20;42.20
13440;DHT22;6792;57.698;11.946;2023-10-08T08:24:34;13.90;42.30
13440;DHT22;6792;57.698;11.946;2023-10-08T08:31:02;14.00;42.40
13440;DHT22;6792;57.698;11.946;2023-10-08T08:33:43;14.00;42.50
13440;DHT22;6792;57.698;11.946;2023-10-08T08:36:24;14.10;42.20
13440;DHT22;6792;57.698;11.946;2023-10-08T08:38:54;14.10;42.10
13440;DHT22;6792;57.698;11.946;2023-10-08T08:49:07;14.20;41.10
13440;DHT22;6792;57.698;11.946;2023-10-08T08:51:45;14.30;41.70
13440;DHT22;6792;57.698;11.946;2023-10-08T08:57:35;14.50;40.80
13440;DHT22;6792;57.698;11.946;2023-10-08T09:16:24;14.90;40.50
13440;DHT22;6792;57.698;11.946;2023-10-08T09:28:16;14.90;40.60
13440;DHT22;6792;57.698;11.946;2023-10-08T09:30:50;14.90;40.40
13440;DHT22;6792;57.698;11.946;2023-10-08T09:33:24;14.90;40.30
13440;DHT22;6792;57.698;11.946;2023-10-08T09:35:54;14.90;40.10
13440;DHT22;6792;57.698;11.946;2023-10-08T09:38:25;15.00;40.00
13440;DHT22;6792;57.698;11.946;2023-10-08T09:40:56;15.00;39.80
13440;DHT22;6792;57.698;11.946;2023-10-08T09:46:15;15.10;39.00
13440;DHT22;6792;57.698;11.946;2023-10-08T09:48:49;15.20;39.70
13440;DHT22;6792;57.698;11.946;2023-10-08T09:51:20;15.20;38.90
13440;DHT22;6792;57.698;11.946;2023-10-08T09:56:31;15.30;38.70
13440;DHT22;6792;57.698;11.946;2023-10-08T09:59:02;15.40;39.30
13440;DHT22;6792;57.698;11.946;2023-10-08T10:01:33;15.40;39.20
13440;DHT22;6792;57.698;11.946;2023-10-08T10:04:06;15.50;39.20
13440;DHT22;6792;57.698;11.946;2023-10-08T10:06:38;15.50;39.10
13440;DHT22;6792;57.698;11.946;2023-10-08T10:09:08;15.50;39.00
13440;DHT22;6792;57.698;11.946;2023-10-08T10:11:40;15.60;39.00
13440;DHT22;6792;57.698;11.946;2023-10-08T10:14:11;15.60;38.80
13440;DHT22;6792;57.698;11.946;2023-10-08T10:16:44;15.70;38.90
13440;DHT22;6792;57.698;11.946;2023-10-08T10:19:27;15.70;38.80
13440;DHT22;6792;57.698;11.946;2023-10-08T10:22:00;15.80;38.70
13440;DHT22;6792;57.698;11.946;2023-10-08T10:24:35;15.80;38.00
13440;DHT22;6792;57.698;11.946;2023-10-08T10:27:13;15.90;38.60
13440;DHT22;6792;57.698;11.946;2023-10-08T10:29:43;15.90;38.50
13440;DHT22;6792;57.698;11.946;2023-10-08T10:32:15;16.00;38.40
13440;DHT22;6792;57.698;11.946;2023-10-08T10:34:47;16.00;38.30
13440;DHT22;6792;57.698;11.946;2023-10-08T10:37:20;16.10;38.70
13440;DHT22;6792;57.698;11.946;2023-10-08T10:39:58;16.10;37.90
13440;DHT22;6792;57.698;11.946;2023-10-08T10:42:31;16.20;37.90
13440;DHT22;6792;57.698;11.946;2023-10-08T10:45:11;16.30;37.70
13440;DHT22;6792;57.698;11.946;2023-10-08T10:47:45;16.30;37.40
13440;DHT22;6792;57.698;11.946;2023-10-08T10:50:15;16.40;37.30
13440;DHT22;6792;57.698;11.946;2023-10-08T10:52:49;16.40;37.10
13440;DHT22;6792;57.698;11.946;2023-10-08T10:55:24;16.50;37.00
13440;DHT22;6792;57.698;11.946;2023-10-08T10:58:03;16.50;36.90
13440;DHT22;6792;57.698;11.946;2023-10-08T11:00:45;16.60;36.70
13440;DHT22;6792;57.698;11.946;2023-10-08T11:03:21;16.70;35.90
13440;DHT22;6792;57.698;11.946;2023-10-08T11:18:50;17.00;36.00
13440;DHT22;6792;57.698;11.946;2023-10-08T11:22:02;17.20;35.90
13440;DHT22;6792;57.698;11.946;2023-10-08T11:27:40;17.30;34.60
13440;DHT22;6792;57.698;11.946;2023-10-08T11:30:42;17.40;35.30
13440;DHT22;6792;57.698;11.946;2023-10-08T11:33:20;17.50;35.20
13440;DHT22;6792;57.698;11.946;2023-10-08T11:36:01;17.60;35.00
13440;DHT22;6792;57.698;11.946;2023-10-08T11:38:40;17.70;34.10
13440;DHT22;6792;57.698;11.946;2023-10-08T11:41:14;17.80;34.60
13440;DHT22;6792;57.698;11.946;2023-10-08T11:43:52;17.90;33.80
13440;DHT22;6792;57.698;11.946;2023-10-08T11:46:26;18.00;34.30
13440;DHT22;6792;57.698;11.946;2023-10-08T11:49:00;18.10;34.10
13440;DHT22;6792;57.698;11.946;2023-10-08T11:51:34;18.20;33.80
13440;DHT22;6792;57.698;11.946;2023-10-08T11:54:05;18.30;33.70
13440;DHT22;6792;57.698;11.946;2023-10-08T11:59:18;18.50;33.30
13440;DHT22;6792;57.698;11.946;2023-10-08T12:01:47;18.60;33.30
13440;DHT22;6792;57.698;11.946;2023-10-08T12:04:20;18.70;33.10
13440;DHT22;6792;57.698;11.946;2023-10-08T12:06:51;18.80;32.90
13440;DHT22;6792;57.698;11.946;2023-10-08T12:09:20;18.90;32.70
13440;DHT22;6792;57.698;11.946;2023-10-08T12:11:52;19.00;32.50
13440;DHT22;6792;57.698;11.946;2023-10-08T12:14:21;19.10;32.40
13440;DHT22;6792;57.698;11.946;2023-10-08T12:16:55;19.20;31.60
13440;DHT22;6792;57.698;11.946;2023-10-08T12:19:26;19.30;31.40
13440;DHT22;6792;57.698;11.946;2023-10-08T12:21:58;19.40;31.90
13440;DHT22;6792;57.698;11.946;2023-10-08T12:24:30;19.50;31.70
13440;DHT22;6792;57.698;11.946;2023-10-08T12:27:01;19.70;31.60
13440;DHT22;6792;57.698;11.946;2023-10-08T12:29:31;19.80;31.10
13440;DHT22;6792;57.698;11.946;2023-10-08T12:32:01;19.90;31.10
13440;DHT22;6792;57.698;11.946;2023-10-08T12:34:36;20.00;30.90
13440;DHT22;6792;57.698;11.946;2023-10-08T12:37:06;20.10;30.50
13440;DHT22;6792;57.698;11.946;2023-10-08T12:39:35;20.30;31.00
13440;DHT22;6792;57.698;11.946;2023-10-08T12:42:06;20.40;30.20
13440;DHT22;6792;57.698;11.946;2023-10-08T12:44:35;20.50;30.00
13440;DHT22;6792;57.698;11.946;2023-10-08T12:47:05;20.60;30.00
13440;DHT22;6792;57.698;11.946;2023-10-08T12:49:35;20.70;29.80
13440;DHT22;6792;57.698;11.946;2023-10-08T12:52:07;20.80;29.70
13440;DHT22;6792;57.698;11.946;2023-10-08T12:54:37;20.90;29.70
13440;DHT22;6792;57.698;11.946;2023-10-08T12:57:08;21.00;29.60
13440;DHT22;6792;57.698;11.946;2023-10-08T12:59:38;21.00;29.40
13440;DHT22;6792;57.698;11.946;2023-10-08T13:02:09;21.00;29.30
13440;DHT22;6792;57.698;11.946;2023-10-08T13:04:39;21.00;29.20
13440;DHT22;6792;57.698;11.946;2023-10-08T13:07:09;21.00;29.10
13440;DHT22;6792;57.698;11.946;2023-10-08T13:09:40;21.00;29.10
13440;DHT22;6792;57.698;11.946;2023-10-08T13:12:11;21.00;29.10
13440;DHT22;6792;57.698;11.946;2023-10-08T13:14:42;21.00;29.00
13440;DHT22;6792;57.698;11.946;2023-10-08T13:17:13;20.90;29.10
13440;DHT22;6792;57.698;11.946;2023-10-08T13:19:42;20.90;29.10
13440;DHT22;6792;57.698;11.946;2023-10-08T13:22:14;20.90;28.60
13440;DHT22;6792;57.698;11.946;2023-10-08T13:24:45;21.00;29.10
13440;DHT22;6792;57.698;11.946;2023-10-08T13:27:16;21.10;29.10
13440;DHT22;6792;57.698;11.946;2023-10-08T13:29:46;21.20;28.50
13440;DHT22;6792;57.698;11.946;2023-10-08T13:39:22;21.60;27.80
13440;DHT22;6792;57.698;11.946;2023-10-08T13:41:51;21.70;28.60
13440;DHT22;6792;57.698;11.946;2023-10-08T13:44:22;21.50;28.60
13440;DHT22;6792;57.698;11.946;2023-10-08T13:46:53;21.40;29.00
13440;DHT22;6792;57.698;11.946;2023-10-08T13:49:24;21.20;28.10
13440;DHT22;6792;57.698;11.946;2023-10-08T13:51:54;21.10;28.60
13440;DHT22;6792;57.698;11.946;2023-10-08T13:57:50;20.80;28.00
13440;DHT22;6792;57.698;11.946;2023-10-08T14:00:19;20.60;28.80
13440;DHT22;6792;57.698;11.946;2023-10-08T14:02:55;20.50;28.70
13440;DHT22;6792;57.698;11.946;2023-10-08T14:05:28;20.40;28.70
13440;DHT22;6792;57.698;11.946;2023-10-08T14:11:29;20.10;28.00
13440;DHT22;6792;57.698;11.946;2023-10-08T14:14:17;20.00;28.80
13440;DHT22;6792;57.698;11.946;2023-10-08T14:19:36;19.80;28.40
13440;DHT22;6792;57.698;11.946;2023-10-08T14:22:09;19.80;28.50
13440;DHT22;6792;57.698;11.946;2023-10-08T14:24:39;19.70;28.90
13440;DHT22;6792;57.698;11.946;2023-10-08T14:27:08;19.60;28.90
13440;DHT22;6792;57.698;11.946;2023-10-08T14:29:38;19.50;29.00
13440;DHT22;6792;57.698;11.946;2023-10-08T14:32:10;19.50;29.10
13440;DHT22;6792;57.698;11.946;2023-10-08T14:34:39;19.40;29.20
13440;DHT22;6792;57.698;11.946;2023-10-08T14:37:26;19.30;29.40
13440;DHT22;6792;57.698;11.946;2023-10-08T15:14:21;18.60;31.30
13440;DHT22;6792;57.698;11.946;2023-10-08T15:16:52;18.50;31.50
13440;DHT22;6792;57.698;11.946;2023-10-08T15:19:22;18.40;31.80
13440;DHT22;6792;57.698;11.946;2023-10-08T15:21:52;18.30;31.90
13440;DHT22;6792;57.698;11.946;2023-10-08T15:24:22;18.30;32.20
13440;DHT22;6792;57.698;11.946;2023-10-08T15:26:55;18.30;32.40
13440;DHT22;6792;57.698;11.946;2023-10-08T15:29:26;18.20;32.50
